sensor_id;sensor_type;location;lat;lon;timestamp;pressure;altitude;pressure_sealevel;temperature;humidity
29045;BME280;16133;49.486;12.176;2023-03-21T00:01:16;97459.22;;;4.83;100.00
29045;BME280;16133;49.486;12.176;2023-03-21T00:03:42;97465.00;;;4.87;100.00
29045;BME280;16133;49.486;12.176;2023-03-21T00:06:10;97465.00;;;4.87;100.00
29045;BME280;16133;49.486;12.176;2023-03-21T00:08:36;97465.72;;;4.89;100.00
29045;BME280;16133;49.486;12.176;2023-03-21T00:11:04;97469.84;;;4.92;100.00
29045;BME280;16133;49.486;12.176;2023-03-21T00:13:31;97462.78;;;4.92;100.00
29045;BME280;16133;49.486;12.176;2023-03-21T00:16:08;97458.25;;;4.94;100.00
29045;BME280;16133;49.486;12.176;2023-03-21T00:18:34;97461.53;;;4.96;100.00
29045;BME280;16133;49.486;12.176;2023-03-21T00:21:07;97464.16;;;4.96;100.00
29045;BME280;16133;49.486;12.176;2023-03-21T00:23:35;97464.88;;;4.98;100.00
29045;BME280;16133;49.486;12.176;2023-03-21T00:26:00;97455.31;;;4.97;100.00
29045;BME280;16133;49.486;12.176;2023-03-21T00:28:26;97460.56;;;4.97;100.00
29045;BME280;16133;49.486;12.176;2023-03-21T00:30:59;97456.28;;;4.96;100.00
29045;BME280;16133;49.486;12.176;2023-03-21T00:33:24;97453.66;;;4.96;100.00
29045;BME280;16133;49.486;12.176;2023-03-21T00:35:50;97461.66;;;4.95;100.00
29045;BME280;16133;49.486;12.176;2023-03-21T00:38:21;97465.13;;;4.95;100.00
29045;BME280;16133;49.486;12.176;2023-03-21T00:40:47;97463.50;;;4.94;100.00
29045;BME280;16133;49.486;12.176;2023-03-21T00:43:13;97456.41;;;4.95;100.00
29045;BME280;16133;49.486;12.176;2023-03-21T00:45:44;97455.44;;;4.96;100.00
29045;BME280;16133;49.486;12.176;2023-03-21T00:48:10;97450.34;;;4.94;100.00
29045;BME280;16133;49.486;12.176;2023-03-21T00:50:36;97453.78;;;4.95;100.00
29045;BME280;16133;49.486;12.176;2023-03-21T00:53:01;97451.97;;;4.95;100.00
29045;BME280;16133;49.486;12.176;2023-03-21T00:55:27;97450.34;;;4.94;100.00
29045;BME280;16133;49.486;12.176;2023-03-21T00:57:52;97446.88;;;4.94;100.00
29045;BME280;16133;49.486;12.176;2023-03-21T01:00:18;97450.34;;;4.94;100.00
29045;BME280;16133;49.486;12.176;2023-03-21T01:02:44;97450.63;;;4.91;100.00
29045;BME280;16133;49.486;12.176;2023-03-21T01:05:27;97448.56;;;4.85;100.00
29045;BME280;16133;49.486;12.176;2023-03-21T01:08:13;97450.94;;;4.78;100.00
29045;BME280;16133;49.486;12.176;2023-03-21T01:10:43;97460.09;;;4.74;100.00
29045;BME280;16133;49.486;12.176;2023-03-21T01:13:10;97463.13;;;4.70;100.00
29045;BME280;16133;49.486;12.176;2023-03-21T01:15:42;97449.28;;;4.68;100.00
29045;BME280;16133;49.486;12.176;2023-03-21T01:18:08;97447.50;;;4.68;100.00
29045;BME280;16133;49.486;12.176;2023-03-21T01:20:33;97443.06;;;4.69;100.00
29045;BME280;16133;49.486;12.176;2023-03-21T01:22:59;97441.16;;;4.71;100.00
29045;BME280;16133;49.486;12.176;2023-03-21T01:25:25;97440.44;;;4.69;100.00
29045;BME280;16133;49.486;12.176;2023-03-21T01:27:50;97440.72;;;4.66;100.00
29045;BME280;16133;49.486;12.176;2023-03-21T01:30:16;97442.00;;;4.62;100.00
29045;BME280;16133;49.486;12.176;2023-03-21T01:32:41;97421.44;;;4.48;100.00
29045;BME280;16133;49.486;12.176;2023-03-21T01:35:07;97446.03;;;4.47;100.00
29045;BME280;16133;49.486;12.176;2023-03-21T01:37:32;97442.31;;;4.40;100.00
29045;BME280;16133;49.486;12.176;2023-03-21T01:39:58;97442.06;;;4.33;100.00
29045;BME280;16133;49.486;12.176;2023-03-21T01:42:24;97445.34;;;4.25;100.00
29045;BME280;16133;49.486;12.176;2023-03-21T01:47:21;97445.50;;;4.14;100.00
29045;BME280;16133;49.486;12.176;2023-03-21T01:49:50;97439.69;;;4.11;100.00
29045;BME280;16133;49.486;12.176;2023-03-21T01:52:20;97442.59;;;4.08;100.00
29045;BME280;16133;49.486;12.176;2023-03-21T01:54:48;97436.81;;;4.04;100.00
29045;BME280;16133;49.486;12.176;2023-03-21T01:57:26;97431.69;;;4.03;100.00
29045;BME280;16133;49.486;12.176;2023-03-21T01:59:57;97423.13;;;4.01;100.00
29045;BME280;16133;49.486;12.176;2023-03-21T02:02:29;97407.91;;;4.04;100.00
29045;BME280;16133;49.486;12.176;2023-03-21T02:04:56;97402.53;;;4.06;100.00
29045;BME280;16133;49.486;12.176;2023-03-21T02:07:33;97398.66;;;4.10;100.00
29045;BME280;16133;49.486;12.176;2023-03-21T02:10:01;97389.69;;;4.12;100.00
29045;BME280;16133;49.486;12.176;2023-03-21T02:12:29;97385.81;;;4.16;100.00
29045;BME280;16133;49.486;12.176;2023-03-21T02:14:56;97380.25;;;4.19;100.00
29045;BME280;16133;49.486;12.176;2023-03-21T02:17:42;97381.66;;;4.23;100.00
29045;BME280;16133;49.486;12.176;2023-03-21T02:28:12;97388.22;;;4.47;100.00
29045;BME280;16133;49.486;12.176;2023-03-21T02:36:24;97374.63;;;4.61;100.00
29045;BME280;16133;49.486;12.176;2023-03-21T02:41:44;97374.06;;;4.67;100.00
29045;BME280;16133;49.486;12.176;2023-03-21T02:49:24;97377.25;;;4.70;100.00
29045;BME280;16133;49.486;12.176;2023-03-21T02:51:52;97385.13;;;4.70;100.00
29045;BME280;16133;49.486;12.176;2023-03-21T02:54:20;97390.22;;;4.72;100.00
29045;BME280;16133;49.486;12.176;2023-03-21T02:56:48;97397.13;;;4.73;100.00
29045;BME280;16133;49.486;12.176;2023-03-21T02:59:15;97390.38;;;4.70;100.00
29045;BME280;16133;49.486;12.176;2023-03-21T03:01:41;97390.50;;;4.69;100.00
29045;BME280;16133;49.486;12.176;2023-03-21T03:04:21;97407.41;;;4.66;100.00
29045;BME280;16133;49.486;12.176;2023-03-21T03:10:02;97390.97;;;4.55;100.00
29045;BME280;16133;49.486;12.176;2023-03-21T03:12:53;97405.31;;;4.60;100.00
29045;BME280;16133;49.486;12.176;2023-03-21T03:25:42;97397.00;;;4.74;100.00
29045;BME280;16133;49.486;12.176;2023-03-21T03:28:12;97400.19;;;4.78;100.00
29045;BME280;16133;49.486;12.176;2023-03-21T03:30:39;97404.19;;;4.82;100.00
29045;BME280;16133;49.486;12.176;2023-03-21T03:33:07;97402.22;;;4.84;100.00
29045;BME280;16133;49.486;12.176;2023-03-21T03:35:35;97406.22;;;4.88;100.00
29045;BME280;16133;49.486;12.176;2023-03-21T03:38:03;97405.91;;;4.91;100.00
29045;BME280;16133;49.486;12.176;2023-03-21T03:40:35;97406.63;;;4.93;100.00
29045;BME280;16133;49.486;12.176;2023-03-21T03:43:09;97411.59;;;4.96;100.00
29045;BME280;16133;49.486;12.176;2023-03-21T03:45:47;97408.81;;;4.98;100.00
29045;BME280;16133;49.486;12.176;2023-03-21T03:48:45;97412.13;;;5.00;100.00
29045;BME280;16133;49.486;12.176;2023-03-21T03:51:22;97412.94;;;5.00;100.00
29045;BME280;16133;49.486;12.176;2023-03-21T03:54:11;97414.63;;;5.01;100.00
29045;BME280;16133;49.486;12.176;2023-03-21T03:56:38;97414.63;;;5.01;100.00
29045;BME280;16133;49.486;12.176;2023-03-21T03:59:04;97415.59;;;5.00;100.00
29045;BME280;16133;49.486;12.176;2023-03-21T04:01:32;97408.81;;;4.98;100.00
29045;BME280;16133;49.486;12.176;2023-03-21T04:03:57;97424.84;;;4.95;100.00
29045;BME280;16133;49.486;12.176;2023-03-21T04:06:25;97424.31;;;4.91;100.00
29045;BME280;16133;49.486;12.176;2023-03-21T04:08:55;97433.47;;;4.87;100.00
29045;BME280;16133;49.486;12.176;2023-03-21T04:11:21;97424.22;;;4.83;100.00
29045;BME280;16133;49.486;12.176;2023-03-21T04:13:47;97389.03;;;4.57;100.00
29045;BME280;16133;49.486;12.176;2023-03-21T04:16:12;97417.03;;;4.75;100.00
29045;BME280;16133;49.486;12.176;2023-03-21T04:18:39;97419.00;;;4.73;100.00
29045;BME280;16133;49.486;12.176;2023-03-21T04:21:09;97417.50;;;4.71;100.00
29045;BME280;16133;49.486;12.176;2023-03-21T04:23:37;97411.69;;;4.67;100.00
29045;BME280;16133;49.486;12.176;2023-03-21T04:26:03;97412.78;;;4.65;100.00
29045;BME280;16133;49.486;12.176;2023-03-21T04:28:30;97414.03;;;4.61;100.00
29045;BME280;16133;49.486;12.176;2023-03-21T04:30:55;97416.28;;;4.56;100.00
29045;BME280;16133;49.486;12.176;2023-03-21T04:33:22;97418.50;;;4.51;100.00
29045;BME280;16133;49.486;12.176;2023-03-21T04:35:51;97423.63;;;4.43;100.00
29045;BME280;16133;49.486;12.176;2023-03-21T04:38:21;97417.56;;;4.32;100.00
29045;BME280;16133;49.486;12.176;2023-03-21T04:40:47;97420.34;;;4.21;100.00
29045;BME280;16133;49.486;12.176;2023-03-21T04:43:12;97419.13;;;4.06;100.00
29045;BME280;16133;49.486;12.176;2023-03-21T04:45:37;97433.59;;;3.91;100.00
29045;BME280;16133;49.486;12.176;2023-03-21T04:48:03;97428.22;;;3.73;100.00
29045;BME280;16133;49.486;12.176;2023-03-21T04:50:28;97442.03;;;3.56;100.00
29045;BME280;16133;49.486;12.176;2023-03-21T04:52:54;97439.91;;;3.41;100.00
29045;BME280;16133;49.486;12.176;2023-03-21T04:55:19;97443.72;;;3.27;100.00
29045;BME280;16133;49.486;12.176;2023-03-21T04:57:46;97448.22;;;3.15;100.00
29045;BME280;16133;49.486;12.176;2023-03-21T05:00:11;97446.53;;;3.05;100.00
29045;BME280;16133;49.486;12.176;2023-03-21T05:02:39;97447.22;;;2.97;100.00
29045;BME280;16133;49.486;12.176;2023-03-21T05:05:05;97442.75;;;2.88;100.00
29045;BME280;16133;49.486;12.176;2023-03-21T05:07:36;97433.75;;;2.81;100.00
29045;BME280;16133;49.486;12.176;2023-03-21T05:10:01;97427.25;;;2.75;100.00
29045;BME280;16133;49.486;12.176;2023-03-21T05:12:27;97423.91;;;2.73;100.00
29045;BME280;16133;49.486;12.176;2023-03-21T05:14:52;97417.28;;;2.69;100.00
29045;BME280;16133;49.486;12.176;2023-03-21T05:17:17;97423.06;;;2.63;100.00
29045;BME280;16133;49.486;12.176;2023-03-21T05:19:47;97411.19;;;2.59;100.00
29045;BME280;16133;49.486;12.176;2023-03-21T05:22:14;97416.69;;;2.56;100.00
29045;BME280;16133;49.486;12.176;2023-03-21T05:24:44;97408.38;;;2.51;100.00
29045;BME280;16133;49.486;12.176;2023-03-21T05:27:17;97413.03;;;2.48;100.00
29045;BME280;16133;49.486;12.176;2023-03-21T05:30:03;97400.34;;;2.43;100.00
29045;BME280;16133;49.486;12.176;2023-03-21T05:32:29;97410.13;;;2.41;100.00
29045;BME280;16133;49.486;12.176;2023-03-21T05:34:54;97395.06;;;2.33;100.00
29045;BME280;16133;49.486;12.176;2023-03-21T05:37:20;97408.91;;;2.45;100.00
29045;BME280;16133;49.486;12.176;2023-03-21T05:39:45;97400.53;;;2.51;100.00
29045;BME280;16133;49.486;12.176;2023-03-21T05:42:11;97386.78;;;2.59;100.00
29045;BME280;16133;49.486;12.176;2023-03-21T05:44:36;97385.72;;;2.71;100.00
29045;BME280;16133;49.486;12.176;2023-03-21T05:47:04;97375.16;;;2.82;100.00
29045;BME280;16133;49.486;12.176;2023-03-21T05:49:30;97365.28;;;2.95;100.00
29045;BME280;16133;49.486;12.176;2023-03-21T05:51:55;97351.34;;;3.04;100.00
29045;BME280;16133;49.486;12.176;2023-03-21T05:54:21;97335.78;;;3.12;100.00
29045;BME280;16133;49.486;12.176;2023-03-21T05:56:46;97330.00;;;3.18;100.00
29045;BME280;16133;49.486;12.176;2023-03-21T05:59:12;97320.63;;;3.25;100.00
29045;BME280;16133;49.486;12.176;2023-03-21T06:01:37;97318.41;;;3.30;100.00
29045;BME280;16133;49.486;12.176;2023-03-21T06:04:02;97313.72;;;3.34;100.00
29045;BME280;16133;49.486;12.176;2023-03-21T06:06:28;97318.13;;;3.33;100.00
29045;BME280;16133;49.486;12.176;2023-03-21T06:08:53;97319.69;;;3.36;100.00
29045;BME280;16133;49.486;12.176;2023-03-21T06:11:23;97328.38;;;3.36;100.00
29045;BME280;16133;49.486;12.176;2023-03-21T06:13:50;97341.50;;;3.36;100.00
29045;BME280;16133;49.486;12.176;2023-03-21T06:16:15;97344.78;;;3.38;100.00
29045;BME280;16133;49.486;12.176;2023-03-21T06:18:40;97351.56;;;3.41;100.00
29045;BME280;16133;49.486;12.176;2023-03-21T06:21:06;97325.06;;;3.25;100.00
29045;BME280;16133;49.486;12.176;2023-03-21T06:23:31;97362.63;;;3.45;100.00
29045;BME280;16133;49.486;12.176;2023-03-21T06:25:57;97366.75;;;3.47;100.00
29045;BME280;16133;49.486;12.176;2023-03-21T06:28:22;97367.31;;;3.51;100.00
29045;BME280;16133;49.486;12.176;2023-03-21T06:30:47;97369.25;;;3.58;100.00
29045;BME280;16133;49.486;12.176;2023-03-21T06:33:13;97372.28;;;3.63;100.00
29045;BME280;16133;49.486;12.176;2023-03-21T06:35:38;97369.66;;;3.73;100.00
29045;BME280;16133;49.486;12.176;2023-03-21T06:38:03;97372.97;;;3.84;100.00
29045;BME280;16133;49.486;12.176;2023-03-21T06:40:29;97368.41;;;3.96;100.00
29045;BME280;16133;49.486;12.176;2023-03-21T06:42:54;97366.47;;;4.08;100.00
29045;BME280;16133;49.486;12.176;2023-03-21T06:45:20;97355.97;;;4.17;100.00
29045;BME280;16133;49.486;12.176;2023-03-21T06:47:45;97355.09;;;4.26;100.00
29045;BME280;16133;49.486;12.176;2023-03-21T06:50:10;97353.13;;;4.38;100.00
29045;BME280;16133;49.486;12.176;2023-03-21T06:52:36;97348.81;;;4.47;100.00
29045;BME280;16133;49.486;12.176;2023-03-21T06:55:01;97319.94;;;4.47;100.00
29045;BME280;16133;49.486;12.176;2023-03-21T06:57:27;97338.66;;;4.71;100.00
29045;BME280;16133;49.486;12.176;2023-03-21T06:59:52;97329.50;;;4.75;100.00
29045;BME280;16133;49.486;12.176;2023-03-21T07:02:17;97329.75;;;4.81;100.00
29045;BME280;16133;49.486;12.176;2023-03-21T07:04:43;97344.97;;;5.05;100.00
29045;BME280;16133;49.486;12.176;2023-03-21T07:07:08;97346.13;;;5.20;100.00
29045;BME280;16133;49.486;12.176;2023-03-21T07:09:34;97316.59;;;5.26;100.00
29045;BME280;16133;49.486;12.176;2023-03-21T07:11:59;97336.41;;;5.66;100.00
29045;BME280;16133;49.486;12.176;2023-03-21T07:14:25;97322.41;;;6.01;100.00
29045;BME280;16133;49.486;12.176;2023-03-21T07:16:51;97302.09;;;6.45;100.00
29045;BME280;16133;49.486;12.176;2023-03-21T07:19:16;97308.94;;;6.97;100.00
29045;BME280;16133;49.486;12.176;2023-03-21T07:21:41;97296.22;;;7.51;100.00
29045;BME280;16133;49.486;12.176;2023-03-21T07:24:07;97313.41;;;8.03;100.00
29045;BME280;16133;49.486;12.176;2023-03-21T07:26:32;97352.38;;;8.58;100.00
29045;BME280;16133;49.486;12.176;2023-03-21T07:28:58;97426.16;;;9.08;100.00
29045;BME280;16133;49.486;12.176;2023-03-21T07:31:23;97488.06;;;9.54;100.00
29045;BME280;16133;49.486;12.176;2023-03-21T07:33:51;97519.53;;;9.96;100.00
29045;BME280;16133;49.486;12.176;2023-03-21T07:36:17;97533.09;;;10.32;100.00
29045;BME280;16133;49.486;12.176;2023-03-21T07:38:43;97540.34;;;10.69;100.00
29045;BME280;16133;49.486;12.176;2023-03-21T07:41:10;97548.22;;;10.99;100.00
29045;BME280;16133;49.486;12.176;2023-03-21T07:43:35;97545.47;;;11.30;100.00
29045;BME280;16133;49.486;12.176;2023-03-21T07:46:01;97544.50;;;11.61;97.32
29045;BME280;16133;49.486;12.176;2023-03-21T07:48:27;97539.75;;;11.85;94.08
29045;BME280;16133;49.486;12.176;2023-03-21T07:50:53;97542.09;;;12.10;91.12
29045;BME280;16133;49.486;12.176;2023-03-21T07:53:19;97550.72;;;12.26;83.23
29045;BME280;16133;49.486;12.176;2023-03-21T07:55:51;97544.06;;;12.37;80.55
29045;BME280;16133;49.486;12.176;2023-03-21T07:58:19;97541.41;;;12.37;78.22
29045;BME280;16133;49.486;12.176;2023-03-21T08:00:45;97551.31;;;12.43;75.95
29045;BME280;16133;49.486;12.176;2023-03-21T08:03:10;97553.59;;;12.46;75.66
29045;BME280;16133;49.486;12.176;2023-03-21T08:05:36;97546.25;;;12.48;75.35
29045;BME280;16133;49.486;12.176;2023-03-21T08:08:03;97542.41;;;12.36;72.68
29045;BME280;16133;49.486;12.176;2023-03-21T08:10:29;97539.03;;;12.27;73.19
29045;BME280;16133;49.486;12.176;2023-03-21T08:12:55;97539.81;;;12.21;73.77
29045;BME280;16133;49.486;12.176;2023-03-21T08:15:20;97540.00;;;12.05;72.09
29045;BME280;16133;49.486;12.176;2023-03-21T08:17:46;97535.44;;;11.99;72.80
29045;BME280;16133;49.486;12.176;2023-03-21T08:20:17;97539.56;;;12.02;73.40
29045;BME280;16133;49.486;12.176;2023-03-21T08:22:45;97537.34;;;12.05;72.63
29045;BME280;16133;49.486;12.176;2023-03-21T08:25:11;97536.44;;;11.98;71.58
29045;BME280;16133;49.486;12.176;2023-03-21T08:27:43;97525.34;;;11.94;72.92
29045;BME280;16133;49.486;12.176;2023-03-21T08:30:11;97527.44;;;11.84;70.69
29045;BME280;16133;49.486;12.176;2023-03-21T08:32:38;97522.31;;;11.68;70.42
29045;BME280;16133;49.486;12.176;2023-03-21T08:35:06;97524.06;;;11.61;70.60
29045;BME280;16133;49.486;12.176;2023-03-21T08:37:37;97497.38;;;11.40;72.00
29045;BME280;16133;49.486;12.176;2023-03-21T08:40:05;97519.44;;;11.40;72.89
29045;BME280;16133;49.486;12.176;2023-03-21T08:42:39;97517.31;;;11.07;73.56
29045;BME280;16133;49.486;12.176;2023-03-21T08:45:06;97514.84;;;10.82;74.13
29045;BME280;16133;49.486;12.176;2023-03-21T08:47:32;97518.19;;;10.62;73.36
29045;BME280;16133;49.486;12.176;2023-03-21T08:49:58;97511.56;;;10.35;76.25
29045;BME280;16133;49.486;12.176;2023-03-21T08:52:24;97517.78;;;10.19;77.40
29045;BME280;16133;49.486;12.176;2023-03-21T08:54:50;97514.34;;;10.02;78.49
29045;BME280;16133;49.486;12.176;2023-03-21T08:57:15;97517.38;;;9.91;79.00
29045;BME280;16133;49.486;12.176;2023-03-21T08:59:41;97519.91;;;9.85;80.31
29045;BME280;16133;49.486;12.176;2023-03-21T09:02:06;97504.72;;;9.71;80.79
29045;BME280;16133;49.486;12.176;2023-03-21T09:04:32;97521.56;;;9.78;81.41
29045;BME280;16133;49.486;12.176;2023-03-21T09:06:58;97516.34;;;9.70;81.52
29045;BME280;16133;49.486;12.176;2023-03-21T09:09:26;97515.50;;;9.69;81.00
29045;BME280;16133;49.486;12.176;2023-03-21T09:11:52;97517.47;;;9.67;81.41
29045;BME280;16133;49.486;12.176;2023-03-21T09:14:17;97516.16;;;9.71;80.66
29045;BME280;16133;49.486;12.176;2023-03-21T09:16:43;97505.91;;;9.68;80.73
29045;BME280;16133;49.486;12.176;2023-03-21T09:19:08;97510.84;;;9.71;81.82
29045;BME280;16133;49.486;12.176;2023-03-21T09:21:34;97506.53;;;9.70;80.46
29045;BME280;16133;49.486;12.176;2023-03-21T09:24:00;97501.22;;;9.70;79.93
29045;BME280;16133;49.486;12.176;2023-03-21T09:26:27;97508.00;;;9.81;80.91
29045;BME280;16133;49.486;12.176;2023-03-21T09:28:54;97500.50;;;9.92;80.55
29045;BME280;16133;49.486;12.176;2023-03-21T09:31:20;97506.75;;;9.99;80.86
29045;BME280;16133;49.486;12.176;2023-03-21T09:33:52;97502.28;;;10.00;81.40
29045;BME280;16133;49.486;12.176;2023-03-21T09:36:18;97504.47;;;9.96;80.68
29045;BME280;16133;49.486;12.176;2023-03-21T09:38:46;97504.47;;;9.96;80.23
29045;BME280;16133;49.486;12.176;2023-03-21T09:41:23;97493.50;;;9.99;79.63
29045;BME280;16133;49.486;12.176;2023-03-21T09:49:05;97497.97;;;9.99;77.32
29045;BME280;16133;49.486;12.176;2023-03-21T09:51:38;97490.81;;;10.07;77.89
29045;BME280;16133;49.486;12.176;2023-03-21T09:54:22;97488.78;;;10.09;79.22
29045;BME280;16133;49.486;12.176;2023-03-21T09:56:52;97494.44;;;10.15;78.55
29045;BME280;16133;49.486;12.176;2023-03-21T09:59:39;97468.25;;;10.12;79.90
29045;BME280;16133;49.486;12.176;2023-03-21T10:04:47;97483.97;;;10.44;76.68
29045;BME280;16133;49.486;12.176;2023-03-21T10:07:13;97479.78;;;10.49;77.42
29045;BME280;16133;49.486;12.176;2023-03-21T10:09:43;97485.84;;;10.58;75.33
29045;BME280;16133;49.486;12.176;2023-03-21T10:12:20;97481.50;;;10.65;75.83
29045;BME280;16133;49.486;12.176;2023-03-21T10:14:48;97460.03;;;10.52;75.92
29045;BME280;16133;49.486;12.176;2023-03-21T10:22:36;97475.41;;;10.79;74.73
29045;BME280;16133;49.486;12.176;2023-03-21T10:25:03;97460.56;;;10.85;73.41
29045;BME280;16133;49.486;12.176;2023-03-21T10:27:29;97460.31;;;10.94;73.40
29045;BME280;16133;49.486;12.176;2023-03-21T10:29:55;97459.50;;;11.09;71.96
29045;BME280;16133;49.486;12.176;2023-03-21T10:32:21;97459.16;;;11.12;71.18
29045;BME280;16133;49.486;12.176;2023-03-21T10:34:52;97454.19;;;11.09;70.84
29045;BME280;16133;49.486;12.176;2023-03-21T10:37:19;97453.50;;;11.15;70.33
29045;BME280;16133;49.486;12.176;2023-03-21T10:39:48;97441.84;;;11.16;70.46
29045;BME280;16133;49.486;12.176;2023-03-21T10:42:19;97436.91;;;11.13;69.33
29045;BME280;16133;49.486;12.176;2023-03-21T10:44:48;97438.94;;;11.11;68.16
29045;BME280;16133;49.486;12.176;2023-03-21T10:47:19;97440.66;;;11.03;68.54
29045;BME280;16133;49.486;12.176;2023-03-21T10:49:46;97434.16;;;11.06;70.24
29045;BME280;16133;49.486;12.176;2023-03-21T10:52:14;97441.13;;;11.07;70.67
29045;BME280;16133;49.486;12.176;2023-03-21T10:54:41;97429.47;;;11.08;71.86
29045;BME280;16133;49.486;12.176;2023-03-21T10:57:14;97428.38;;;11.17;71.52
29045;BME280;16133;49.486;12.176;2023-03-21T10:59:45;97435.34;;;11.33;72.53
29045;BME280;16133;49.486;12.176;2023-03-21T11:02:19;97429.13;;;11.40;72.09
29045;BME280;16133;49.486;12.176;2023-03-21T11:04:48;97427.84;;;11.36;70.16
29045;BME280;16133;49.486;12.176;2023-03-21T11:07:14;97424.81;;;11.39;70.12
29045;BME280;16133;49.486;12.176;2023-03-21T11:09:49;97421.59;;;11.44;70.48
29045;BME280;16133;49.486;12.176;2023-03-21T11:12:39;97411.97;;;11.43;70.59
29045;BME280;16133;49.486;12.176;2023-03-21T11:15:25;97403.09;;;11.50;72.22
29045;BME280;16133;49.486;12.176;2023-03-21T11:17:52;97405.47;;;11.60;70.77
29045;BME280;16133;49.486;12.176;2023-03-21T11:20:18;97394.28;;;11.65;70.56
29045;BME280;16133;49.486;12.176;2023-03-21T11:22:45;97398.00;;;11.70;72.74
29045;BME280;16133;49.486;12.176;2023-03-21T11:25:39;97389.97;;;11.78;71.95
29045;BME280;16133;49.486;12.176;2023-03-21T11:28:13;97395.44;;;11.91;72.21
29045;BME280;16133;49.486;12.176;2023-03-21T11:31:00;97396.94;;;12.01;72.45
29045;BME280;16133;49.486;12.176;2023-03-21T11:33:33;97394.94;;;12.03;69.95
29045;BME280;16133;49.486;12.176;2023-03-21T11:39:12;97380.38;;;11.98;71.63
29045;BME280;16133;49.486;12.176;2023-03-21T11:41:40;97390.06;;;12.06;70.79
29045;BME280;16133;49.486;12.176;2023-03-21T11:44:23;97383.41;;;12.17;72.05
29045;BME280;16133;49.486;12.176;2023-03-21T11:46:49;97379.75;;;12.18;69.81
29045;BME280;16133;49.486;12.176;2023-03-21T11:49:15;97376.00;;;12.12;69.14
29045;BME280;16133;49.486;12.176;2023-03-21T11:54:21;97367.16;;;12.26;71.03
29045;BME280;16133;49.486;12.176;2023-03-21T11:57:13;97350.94;;;12.21;70.56
29045;BME280;16133;49.486;12.176;2023-03-21T12:05:26;97353.91;;;12.61;69.90
29045;BME280;16133;49.486;12.176;2023-03-21T12:21:41;97326.19;;;12.49;67.60
29045;BME280;16133;49.486;12.176;2023-03-21T12:24:14;97326.75;;;12.44;67.13
29045;BME280;16133;49.486;12.176;2023-03-21T12:26:51;97322.25;;;12.44;68.97
29045;BME280;16133;49.486;12.176;2023-03-21T12:29:42;97316.97;;;12.51;68.93
29045;BME280;16133;49.486;12.176;2023-03-21T12:32:22;97310.84;;;12.51;68.54
29045;BME280;16133;49.486;12.176;2023-03-21T12:37:35;97293.13;;;12.64;68.04
29045;BME280;16133;49.486;12.176;2023-03-21T12:40:25;97308.22;;;12.57;67.97
29045;BME280;16133;49.486;12.176;2023-03-21T12:45:33;97288.50;;;12.79;68.97
29045;BME280;16133;49.486;12.176;2023-03-21T12:48:21;97295.94;;;12.90;68.94
29045;BME280;16133;49.486;12.176;2023-03-21T12:50:51;97295.78;;;12.99;68.18
29045;BME280;16133;49.486;12.176;2023-03-21T12:56:08;97287.63;;;13.07;66.36
29045;BME280;16133;49.486;12.176;2023-03-21T12:58:44;97278.81;;;13.06;65.98
29045;BME280;16133;49.486;12.176;2023-03-21T13:01:11;97287.00;;;13.05;64.48
29045;BME280;16133;49.486;12.176;2023-03-21T13:03:47;97278.81;;;13.06;65.41
29045;BME280;16133;49.486;12.176;2023-03-21T13:06:16;97281.06;;;13.09;66.72
29045;BME280;16133;49.486;12.176;2023-03-21T13:08:54;97276.00;;;13.14;66.82
29045;BME280;16133;49.486;12.176;2023-03-21T13:11:23;97269.69;;;13.22;67.20
29045;BME280;16133;49.486;12.176;2023-03-21T13:19:29;97264.38;;;13.35;64.90
29045;BME280;16133;49.486;12.176;2023-03-21T13:22:06;97255.38;;;13.36;64.75
29045;BME280;16133;49.486;12.176;2023-03-21T13:27:35;97247.63;;;13.41;64.71
29045;BME280;16133;49.486;12.176;2023-03-21T13:30:26;97241.88;;;13.51;63.58
29045;BME280;16133;49.486;12.176;2023-03-21T13:32:55;97239.63;;;13.54;64.74
29045;BME280;16133;49.486;12.176;2023-03-21T13:35:36;97248.44;;;13.61;64.27
29045;BME280;16133;49.486;12.176;2023-03-21T13:40:51;97235.16;;;13.68;63.21
29045;BME280;16133;49.486;12.176;2023-03-21T14:04:39;97211.97;;;14.08;63.16
29045;BME280;16133;49.486;12.176;2023-03-21T14:07:10;97213.41;;;14.23;61.19
29045;BME280;16133;49.486;12.176;2023-03-21T14:09:47;97201.91;;;14.23;60.19
29045;BME280;16133;49.486;12.176;2023-03-21T14:12:16;97201.91;;;14.23;61.12
29045;BME280;16133;49.486;12.176;2023-03-21T14:14:46;97202.53;;;14.38;61.68
29045;BME280;16133;49.486;12.176;2023-03-21T14:19:45;97186.31;;;14.40;61.02
29045;BME280;16133;49.486;12.176;2023-03-21T14:22:12;97192.84;;;14.50;60.67
29045;BME280;16133;49.486;12.176;2023-03-21T14:24:37;97190.41;;;14.42;59.87
29045;BME280;16133;49.486;12.176;2023-03-21T14:27:04;97192.88;;;14.44;60.30
29045;BME280;16133;49.486;12.176;2023-03-21T14:29:32;97186.50;;;14.45;59.53
29045;BME280;16133;49.486;12.176;2023-03-21T14:31:59;97179.91;;;14.47;59.63
29045;BME280;16133;49.486;12.176;2023-03-21T14:34:31;97177.19;;;14.60;59.63
29045;BME280;16133;49.486;12.176;2023-03-21T14:36:57;97181.28;;;14.69;60.02
29045;BME280;16133;49.486;12.176;2023-03-21T14:39:29;97178.16;;;14.86;60.34
29045;BME280;16133;49.486;12.176;2023-03-21T14:42:06;97169.66;;;14.95;59.84
29045;BME280;16133;49.486;12.176;2023-03-21T14:47:04;97179.03;;;15.11;58.50
29045;BME280;16133;49.486;12.176;2023-03-21T14:49:32;97169.13;;;15.18;57.65
29045;BME280;16133;49.486;12.176;2023-03-21T14:52:08;97179.81;;;15.18;58.63
29045;BME280;16133;49.486;12.176;2023-03-21T14:54:38;97175.75;;;15.15;57.03
29045;BME280;16133;49.486;12.176;2023-03-21T14:57:09;97183.72;;;15.22;56.88
29045;BME280;16133;49.486;12.176;2023-03-21T14:59:37;97174.91;;;15.15;56.76
29045;BME280;16133;49.486;12.176;2023-03-21T15:02:33;97171.16;;;15.22;56.59